createdAt,value
2022-08-23T00:01:44.766Z,13.40
2022-08-23T00:04:19.639Z,13.30
2022-08-23T00:06:48.705Z,13.30
2022-08-23T00:09:16.445Z,13.30
2022-08-23T00:11:47.838Z,13.20
2022-08-23T00:14:16.938Z,13.20
2022-08-23T00:16:44.710Z,13.20
2022-08-23T00:19:15.121Z,13.20
2022-08-23T00:21:42.729Z,13.10
2022-08-23T00:24:12.094Z,13.10
2022-08-23T00:27:05.025Z,13.10
2022-08-23T00:29:38.003Z,13.10
2022-08-23T00:32:09.970Z,13.00
2022-08-23T00:34:38.209Z,13.00
2022-08-23T00:37:06.166Z,13.10
2022-08-23T00:39:33.073Z,13.10
2022-08-23T00:42:30.549Z,13.10
2022-08-23T00:45:19.151Z,13.00
2022-08-23T00:47:46.500Z,12.90
2022-08-23T00:50:27.779Z,12.80
2022-08-23T00:53:07.020Z,12.80
2022-08-23T00:55:34.910Z,12.70
2022-08-23T00:58:04.888Z,12.60
2022-08-23T01:00:32.730Z,12.50
2022-08-23T01:02:59.855Z,12.50
2022-08-23T01:05:45.021Z,12.40
2022-08-23T01:08:15.076Z,12.50
2022-08-23T01:10:48.034Z,12.60
2022-08-23T01:13:23.621Z,12.60
2022-08-23T01:16:16.262Z,12.70
2022-08-23T01:18:44.203Z,12.80
2022-08-23T01:21:30.348Z,12.70
2022-08-23T01:24:03.237Z,12.60
2022-08-23T01:26:35.148Z,12.70
2022-08-23T01:29:05.012Z,12.60
2022-08-23T01:31:33.429Z,12.60
2022-08-23T01:34:09.962Z,12.40
2022-08-23T01:36:37.285Z,12.40
2022-08-23T01:39:05.586Z,12.50
2022-08-23T01:41:32.460Z,12.50
2022-08-23T01:43:59.444Z,12.40
2022-08-23T01:46:27.111Z,12.40
2022-08-23T01:48:58.501Z,12.40
2022-08-23T01:51:26.610Z,12.30
2022-08-23T01:53:53.628Z,12.30
2022-08-23T01:56:37.997Z,12.40
2022-08-23T01:59:05.327Z,12.40
2022-08-23T02:01:32.212Z,12.40
2022-08-23T02:04:04.937Z,12.30
2022-08-23T02:06:32.940Z,12.20
2022-08-23T02:09:04.206Z,12.20
2022-08-23T02:11:37.305Z,12.10
2022-08-23T02:14:08.733Z,12.00
2022-08-23T02:16:41.960Z,11.90
2022-08-23T02:19:18.325Z,11.80
2022-08-23T02:21:46.902Z,11.80
2022-08-23T02:24:16.887Z,11.70
2022-08-23T02:26:46.887Z,11.70
2022-08-23T02:29:20.411Z,11.60
2022-08-23T02:31:49.656Z,11.60
2022-08-23T02:34:37.337Z,11.60
2022-08-23T02:37:05.653Z,11.60
2022-08-23T02:39:32.837Z,11.60
2022-08-23T02:42:01.093Z,11.50
2022-08-23T02:44:28.347Z,11.50
2022-08-23T02:46:56.356Z,11.50
2022-08-23T02:49:23.334Z,11.50
2022-08-23T02:51:50.312Z,11.40
2022-08-23T02:54:17.254Z,11.40
2022-08-23T02:56:44.200Z,11.30
2022-08-23T02:59:11.146Z,11.30
2022-08-23T03:01:39.429Z,11.20
2022-08-23T03:04:08.612Z,11.30
2022-08-23T03:06:36.103Z,11.30
2022-08-23T03:09:05.131Z,11.30
2022-08-23T03:11:32.099Z,11.40
2022-08-23T03:13:59.097Z,11.30
2022-08-23T03:16:26.077Z,11.20
2022-08-23T03:18:53.349Z,11.20
2022-08-23T03:21:21.030Z,11.10
2022-08-23T03:23:48.741Z,11.10
2022-08-23T03:26:16.454Z,11.10
2022-08-23T03:28:44.652Z,11.10
2022-08-23T03:31:12.437Z,11.20
2022-08-23T03:33:39.928Z,11.30
2022-08-23T03:36:09.461Z,11.30
2022-08-23T03:38:38.606Z,11.30
2022-08-23T03:41:06.035Z,11.30
2022-08-23T03:43:34.650Z,11.40
2022-08-23T03:46:01.528Z,11.40
2022-08-23T03:48:28.401Z,11.40
2022-08-23T03:50:55.292Z,11.40
2022-08-23T03:53:23.874Z,11.40
2022-08-23T03:55:53.393Z,11.30
2022-08-23T03:58:22.251Z,11.30
2022-08-23T04:00:49.317Z,11.20
2022-08-23T04:03:16.427Z,11.10
2022-08-23T04:05:43.669Z,11.10
2022-08-23T04:08:11.383Z,11.20
2022-08-23T04:10:39.403Z,11.10
2022-08-23T04:13:09.163Z,11.20
2022-08-23T04:15:37.140Z,11.20
2022-08-23T04:18:05.450Z,11.20
2022-08-23T04:20:33.389Z,11.20
2022-08-23T04:23:00.947Z,11.20
2022-08-23T04:25:34.928Z,11.10
2022-08-23T04:28:03.525Z,11.10
2022-08-23T04:30:30.952Z,11.10
2022-08-23T04:32:57.995Z,11.10
2022-08-23T04:35:26.146Z,11.10
2022-08-23T04:37:54.009Z,11.10
2022-08-23T04:40:39.321Z,11.10
2022-08-23T04:43:08.674Z,11.10
2022-08-23T04:45:39.198Z,11.20
2022-08-23T04:48:06.922Z,11.20
2022-08-23T04:50:40.924Z,11.10
2022-08-23T04:53:08.292Z,11.20
2022-08-23T04:55:36.358Z,11.20
2022-08-23T04:58:04.463Z,11.20
2022-08-23T05:00:31.593Z,11.30
2022-08-23T05:02:58.614Z,11.20
2022-08-23T05:05:26.462Z,11.30
2022-08-23T05:07:54.015Z,11.40
2022-08-23T05:10:21.043Z,11.40
2022-08-23T05:12:48.718Z,11.50
2022-08-23T05:15:15.852Z,11.60
2022-08-23T05:17:42.682Z,11.60
2022-08-23T05:20:10.390Z,11.70
2022-08-23T05:22:39.430Z,11.80
2022-08-23T05:25:07.090Z,11.80
2022-08-23T05:27:34.126Z,11.90
2022-08-23T05:30:00.909Z,12.00
2022-08-23T05:32:30.393Z,12.10
2022-08-23T05:35:00.220Z,12.20
2022-08-23T05:37:27.123Z,12.20
2022-08-23T05:39:54.100Z,12.30
2022-08-23T05:42:20.959Z,12.40
2022-08-23T05:44:47.982Z,12.40
2022-08-23T05:47:16.354Z,12.40
2022-08-23T05:49:44.491Z,12.50
2022-08-23T05:52:13.521Z,12.50
2022-08-23T05:54:40.592Z,12.60
2022-08-23T05:57:07.702Z,12.70
2022-08-23T05:59:34.616Z,12.80
2022-08-23T06:02:02.070Z,12.90
2022-08-23T06:04:29.005Z,13.00
2022-08-23T06:07:01.431Z,13.10
2022-08-23T06:09:28.349Z,13.20
2022-08-23T06:11:56.188Z,13.30
2022-08-23T06:14:23.695Z,13.50
2022-08-23T06:16:55.471Z,13.60
2022-08-23T06:19:23.921Z,13.70
2022-08-23T06:21:52.498Z,13.80
2022-08-23T06:24:20.154Z,14.00
2022-08-23T06:26:47.590Z,14.10
2022-08-23T06:29:19.172Z,14.20
2022-08-23T06:31:51.495Z,14.30
2022-08-23T06:34:33.822Z,14.50
2022-08-23T06:37:12.319Z,14.60
2022-08-23T06:39:39.481Z,14.80
2022-08-23T06:42:34.817Z,14.90
2022-08-23T06:44:56.782Z,15.10
2022-08-23T06:47:23.747Z,15.30
2022-08-23T06:49:55.371Z,15.40
2022-08-23T06:52:27.544Z,15.50
2022-08-23T06:54:55.051Z,15.70
2022-08-23T06:57:21.983Z,15.80
2022-08-23T06:59:50.003Z,15.90
2022-08-23T07:02:17.141Z,16.10
2022-08-23T07:04:44.356Z,16.20
2022-08-23T07:07:12.478Z,16.40
2022-08-23T07:09:40.383Z,16.50
2022-08-23T07:12:07.677Z,16.70
2022-08-23T07:14:34.919Z,16.80
2022-08-23T07:17:03.684Z,17.00
2022-08-23T07:19:35.026Z,17.20
2022-08-23T07:22:03.452Z,17.50
2022-08-23T07:24:33.537Z,17.90
2022-08-23T07:27:06.795Z,17.80
2022-08-23T07:29:35.956Z,18.00
2022-08-23T07:32:03.435Z,18.80
2022-08-23T07:34:30.376Z,20.50
2022-08-23T07:36:57.454Z,22.70
2022-08-23T07:39:26.391Z,24.80
2022-08-23T07:41:53.466Z,26.60
2022-08-23T07:44:23.538Z,27.90
2022-08-23T07:46:54.420Z,29.10
2022-08-23T07:49:29.232Z,30.70
2022-08-23T07:51:58.778Z,32.10
2022-08-23T07:54:25.941Z,33.10
2022-08-23T07:56:52.818Z,34.30
2022-08-23T07:59:23.809Z,34.20
2022-08-23T08:01:50.718Z,35.00
2022-08-23T08:04:17.638Z,35.30
2022-08-23T08:06:59.951Z,35.80
2022-08-23T08:09:34.873Z,36.10
2022-08-23T08:12:01.769Z,37.10
2022-08-23T08:14:28.629Z,37.30
2022-08-23T08:16:58.616Z,38.20
2022-08-23T08:19:25.821Z,38.70
2022-08-23T08:21:53.277Z,38.40
2022-08-23T08:24:20.174Z,38.20
2022-08-23T08:26:51.295Z,38.00
2022-08-23T08:29:18.367Z,37.40
2022-08-23T08:31:50.319Z,38.00
2022-08-23T08:34:20.179Z,37.10
2022-08-23T08:36:58.434Z,37.60
2022-08-23T08:39:30.286Z,37.10
2022-08-23T08:42:12.727Z,37.80
2022-08-23T08:44:51.542Z,37.90
2022-08-23T08:47:39.845Z,38.40
2022-08-23T08:50:33.985Z,39.20
2022-08-23T08:53:27.992Z,39.30
2022-08-23T08:56:01.076Z,39.30
2022-08-23T08:58:36.718Z,39.00
2022-08-23T09:01:03.557Z,39.30
2022-08-23T09:03:34.780Z,39.60
2022-08-23T09:06:33.869Z,39.60
2022-08-23T09:09:03.763Z,39.20
2022-08-23T09:11:45.682Z,40.30
2022-08-23T09:14:24.581Z,40.30
2022-08-23T09:17:24.284Z,39.90
2022-08-23T09:19:56.453Z,38.70
2022-08-23T09:22:51.413Z,39.20
2022-08-23T09:25:18.707Z,40.80
2022-08-23T09:27:46.457Z,42.10
2022-08-23T09:30:17.260Z,43.10
2022-08-23T09:32:46.668Z,43.10
2022-08-23T09:35:23.015Z,43.30
2022-08-23T09:37:59.103Z,42.70
2022-08-23T09:40:45.145Z,41.90
2022-08-23T09:43:13.196Z,42.70
2022-08-23T09:46:01.347Z,42.90
2022-08-23T09:48:45.526Z,42.30
2022-08-23T09:51:22.504Z,41.40
2022-08-23T09:53:53.481Z,42.00
2022-08-23T09:56:26.500Z,43.00
2022-08-23T09:58:54.499Z,43.40
2022-08-23T10:01:27.423Z,42.90
2022-08-23T10:04:24.515Z,41.70
2022-08-23T10:06:53.037Z,42.40
2022-08-23T10:09:25.678Z,42.50
2022-08-23T10:11:52.603Z,43.10
2022-08-23T10:14:24.294Z,42.40
2022-08-23T10:17:31.072Z,42.30
2022-08-23T10:20:13.986Z,42.50
2022-08-23T10:23:17.982Z,42.50
2022-08-23T10:25:58.412Z,43.30
2022-08-23T10:28:53.114Z,43.40
2022-08-23T10:31:29.211Z,43.10
2022-08-23T10:34:16.279Z,41.90
2022-08-23T10:37:08.067Z,40.10
2022-08-23T10:39:44.024Z,41.00
2022-08-23T10:42:32.405Z,40.80
2022-08-23T10:45:24.634Z,40.90
2022-08-23T10:48:10.060Z,41.30
2022-08-23T10:50:55.490Z,41.40
2022-08-23T10:53:29.577Z,40.50
2022-08-23T10:56:04.316Z,40.00
2022-08-23T10:58:49.593Z,39.50
2022-08-23T11:01:33.405Z,40.20
2022-08-23T11:04:06.698Z,40.60
2022-08-23T11:06:36.549Z,41.40
2022-08-23T11:09:27.891Z,42.30
2022-08-23T11:12:31.015Z,41.70
2022-08-23T11:15:24.144Z,41.80
2022-08-23T11:17:50.957Z,39.70
2022-08-23T11:20:48.895Z,40.70
2022-08-23T11:23:38.599Z,41.00
2022-08-23T11:26:08.822Z,40.70
2022-08-23T11:28:43.162Z,40.10
2022-08-23T11:31:22.263Z,39.70
2022-08-23T11:34:29.648Z,39.50
2022-08-23T11:37:28.714Z,39.10
2022-08-23T11:40:18.418Z,38.30
2022-08-23T11:42:58.225Z,37.80
2022-08-23T11:45:32.196Z,37.20
2022-08-23T11:48:35.702Z,37.30
2022-08-23T11:51:21.178Z,36.80
2022-08-23T11:54:27.646Z,36.40
2022-08-23T11:57:15.924Z,37.20
2022-08-23T12:00:12.854Z,37.10
2022-08-23T12:03:07.889Z,36.90
2022-08-23T12:09:04.195Z,36.30
2022-08-23T12:11:57.199Z,35.40
2022-08-23T12:14:45.401Z,35.30
2022-08-23T12:17:12.243Z,34.90
2022-08-23T12:19:53.911Z,34.50
2022-08-23T12:22:25.351Z,34.70
2022-08-23T12:24:54.399Z,34.40
2022-08-23T12:27:33.460Z,34.00
2022-08-23T12:30:09.557Z,33.20
2022-08-23T12:32:58.306Z,32.30
2022-08-23T12:35:43.818Z,32.20
2022-08-23T12:38:28.792Z,32.50
2022-08-23T12:40:56.821Z,32.60
2022-08-23T12:43:26.872Z,32.50
2022-08-23T12:46:00.986Z,32.40
2022-08-23T12:48:33.921Z,32.30
2022-08-23T12:51:10.572Z,32.20
2022-08-23T12:53:45.115Z,32.20
2022-08-23T12:56:15.647Z,31.90
2022-08-23T12:58:47.967Z,31.70
2022-08-23T13:01:23.528Z,31.70
2022-08-23T13:04:08.289Z,31.90
2022-08-23T13:06:40.124Z,31.70
2022-08-23T13:09:36.549Z,31.60
2022-08-23T13:12:04.897Z,31.60
2022-08-23T13:14:37.350Z,31.70
2022-08-23T13:17:19.235Z,31.60
2022-08-23T13:19:48.791Z,31.60
2022-08-23T13:22:19.324Z,31.60
2022-08-23T13:25:28.777Z,31.40
2022-08-23T13:27:53.882Z,31.40
2022-08-23T13:30:36.318Z,30.90
2022-08-23T13:33:07.655Z,30.90
2022-08-23T13:35:46.982Z,30.60
2022-08-23T13:38:21.386Z,30.60
2022-08-23T13:41:00.439Z,30.60
2022-08-23T13:43:39.064Z,30.50
2022-08-23T13:46:22.601Z,30.50
2022-08-23T13:49:01.012Z,30.50
2022-08-23T13:51:27.821Z,30.50
2022-08-23T13:53:56.286Z,30.20
2022-08-23T13:56:24.338Z,30.00
2022-08-23T13:59:31.558Z,30.00
2022-08-23T14:02:05.516Z,30.00
2022-08-23T14:04:32.866Z,30.00
2022-08-23T14:06:59.966Z,29.90
2022-08-23T14:09:26.789Z,29.70
2022-08-23T14:11:58.873Z,29.60
2022-08-23T14:14:27.247Z,29.60
2022-08-23T14:16:54.571Z,29.60
2022-08-23T14:22:08.348Z,29.60
2022-08-23T14:24:35.273Z,29.60
2022-08-23T14:27:02.408Z,29.70
2022-08-23T14:29:29.321Z,29.90
2022-08-23T14:31:59.211Z,30.00
2022-08-23T14:34:30.113Z,30.30
2022-08-23T14:39:45.381Z,30.50
2022-08-23T14:42:13.482Z,30.50
2022-08-23T14:44:41.540Z,30.60
2022-08-23T14:47:08.379Z,30.60
2022-08-23T14:49:36.093Z,30.80
2022-08-23T14:52:03.667Z,31.00
2022-08-23T14:54:30.822Z,31.10
2022-08-23T14:56:57.897Z,31.20
2022-08-23T14:59:24.927Z,31.20
2022-08-23T15:01:53.920Z,30.90
2022-08-23T15:04:23.508Z,30.90
2022-08-23T15:07:17.835Z,30.70
2022-08-23T15:09:39.032Z,30.80
2022-08-23T15:12:57.404Z,30.80
2022-08-23T15:16:01.340Z,30.70
2022-08-23T15:18:28.508Z,30.40
2022-08-23T15:20:56.472Z,30.30
2022-08-23T15:23:23.889Z,30.20
2022-08-23T15:25:51.295Z,30.20
2022-08-23T15:28:20.810Z,30.10
2022-08-23T15:30:49.388Z,30.00
2022-08-23T15:33:16.752Z,30.00
2022-08-23T15:35:51.891Z,29.90
2022-08-23T15:38:24.668Z,29.70
2022-08-23T15:40:53.963Z,29.40
2022-08-23T15:43:22.217Z,29.30
2022-08-23T15:45:51.945Z,29.10
2022-08-23T15:48:29.677Z,28.90
2022-08-23T15:50:58.520Z,28.80
2022-08-23T15:53:26.184Z,28.70
2022-08-23T15:55:53.905Z,28.70
2022-08-23T15:58:24.995Z,28.50
2022-08-23T16:00:53.040Z,28.30
2022-08-23T16:03:21.472Z,28.20
2022-08-23T16:05:52.589Z,28.10
2022-08-23T16:08:26.809Z,28.10
2022-08-23T16:10:54.929Z,28.10
2022-08-23T16:13:22.658Z,28.00
2022-08-23T16:15:51.097Z,28.00
2022-08-23T16:18:18.828Z,27.90
2022-08-23T16:20:45.925Z,27.90
2022-08-23T16:23:13.445Z,27.90
2022-08-23T16:25:40.937Z,27.80
2022-08-23T16:28:08.683Z,27.80
2022-08-23T16:30:36.358Z,27.70
2022-08-23T16:33:03.749Z,27.70
2022-08-23T16:35:30.877Z,27.60
2022-08-23T16:37:57.770Z,27.60
2022-08-23T16:40:24.727Z,27.50
2022-08-23T16:42:52.849Z,27.40
2022-08-23T16:45:25.658Z,27.30
2022-08-23T16:47:55.277Z,27.20
2022-08-23T16:50:22.296Z,27.20
2022-08-23T16:52:49.222Z,27.10
2022-08-23T16:55:16.197Z,27.10
2022-08-23T16:57:43.028Z,27.10
2022-08-23T17:00:12.938Z,27.00
2022-08-23T17:02:42.018Z,26.90
2022-08-23T17:05:11.133Z,26.80
2022-08-23T17:07:39.364Z,26.60
2022-08-23T17:10:09.220Z,26.50
2022-08-23T17:12:39.133Z,26.20
2022-08-23T17:15:08.335Z,25.90
2022-08-23T17:17:35.923Z,25.80
2022-08-23T17:20:05.004Z,25.60
2022-08-23T17:22:33.805Z,25.30
2022-08-23T17:25:00.711Z,25.10
2022-08-23T17:27:27.638Z,24.90
2022-08-23T17:29:54.723Z,24.80
2022-08-23T17:32:21.909Z,24.70
2022-08-23T17:34:48.754Z,24.50
2022-08-23T17:37:21.292Z,24.40
2022-08-23T17:39:49.500Z,24.30
2022-08-23T17:42:17.536Z,24.20
2022-08-23T17:44:44.999Z,24.10
2022-08-23T17:47:16.390Z,24.00
2022-08-23T17:49:45.180Z,23.90
2022-08-23T17:52:12.297Z,23.80
2022-08-23T17:54:40.557Z,23.70
2022-08-23T17:57:09.945Z,23.50
2022-08-23T17:59:37.148Z,23.40
2022-08-23T18:02:05.026Z,23.30
2022-08-23T18:04:31.935Z,23.20
2022-08-23T18:06:59.386Z,23.10
2022-08-23T18:09:26.269Z,23.00
2022-08-23T18:11:53.613Z,22.80
2022-08-23T18:14:20.881Z,22.70
2022-08-23T18:16:48.460Z,22.70
2022-08-23T18:19:15.542Z,22.60
2022-08-23T18:21:43.535Z,22.60
2022-08-23T18:24:10.860Z,22.70
2022-08-23T18:26:56.841Z,22.70
2022-08-23T18:29:24.496Z,22.70
2022-08-23T18:31:51.683Z,22.60
2022-08-23T18:34:19.022Z,22.50
2022-08-23T18:36:49.006Z,22.40
2022-08-23T18:39:31.899Z,22.40
2022-08-23T18:42:00.685Z,22.30
2022-08-23T18:44:27.885Z,22.20
2022-08-23T18:46:54.782Z,22.10
2022-08-23T18:49:21.884Z,22.00
2022-08-23T18:51:48.765Z,21.90
2022-08-23T18:54:15.957Z,21.80
2022-08-23T18:56:42.865Z,21.70
2022-08-23T18:59:09.707Z,21.70
2022-08-23T19:01:42.762Z,21.60
2022-08-23T19:04:12.739Z,21.50
2022-08-23T19:06:40.528Z,21.40
2022-08-23T19:09:08.969Z,21.40
2022-08-23T19:11:41.081Z,21.30
2022-08-23T19:14:10.666Z,21.20
2022-08-23T19:16:39.276Z,21.20
2022-08-23T19:19:06.741Z,21.10
2022-08-23T19:21:33.937Z,21.10
2022-08-23T19:24:00.938Z,21.00
2022-08-23T19:26:31.857Z,20.90
2022-08-23T19:29:00.410Z,20.90
2022-08-23T19:31:33.859Z,20.80
2022-08-23T19:34:03.283Z,20.70
2022-08-23T19:36:45.791Z,20.70
2022-08-23T19:39:16.050Z,20.60
2022-08-23T19:41:43.605Z,20.50
2022-08-23T19:44:10.886Z,20.40
2022-08-23T19:46:41.979Z,20.30
2022-08-23T19:49:10.706Z,20.20
2022-08-23T19:51:38.164Z,20.20
2022-08-23T19:54:11.001Z,20.20
2022-08-23T19:56:57.525Z,20.10
2022-08-23T19:59:31.642Z,20.00
2022-08-23T20:01:59.520Z,20.00
2022-08-23T20:04:29.549Z,20.00
2022-08-23T20:07:01.019Z,19.90
2022-08-23T20:09:30.154Z,19.80
2022-08-23T20:11:57.759Z,19.70
2022-08-23T20:14:26.923Z,19.60
2022-08-23T20:16:54.744Z,19.50
2022-08-23T20:19:22.012Z,19.40
2022-08-23T20:21:49.528Z,19.40
2022-08-23T20:24:22.817Z,19.40
2022-08-23T20:26:59.730Z,19.30
2022-08-23T20:29:26.634Z,19.20
2022-08-23T20:31:56.510Z,19.10
2022-08-23T20:34:26.460Z,19.00
2022-08-23T20:36:56.181Z,18.90
2022-08-23T20:39:24.164Z,18.90
2022-08-23T20:41:52.975Z,18.80
2022-08-23T20:44:22.209Z,18.70
2022-08-23T20:46:53.949Z,18.60
2022-08-23T20:49:23.676Z,18.60
2022-08-23T20:51:51.110Z,18.60
2022-08-23T20:54:18.943Z,18.50
2022-08-23T20:56:45.830Z,18.50
2022-08-23T20:59:15.300Z,18.40
2022-08-23T21:01:42.243Z,18.40
2022-08-23T21:04:09.349Z,18.30
2022-08-23T21:06:45.067Z,18.30
2022-08-23T21:09:17.041Z,18.20
2022-08-23T21:11:45.141Z,18.10
2022-08-23T21:14:15.300Z,18.10
2022-08-23T21:16:42.265Z,17.90
2022-08-23T21:19:09.694Z,17.90
2022-08-23T21:21:40.759Z,17.90
2022-08-23T21:24:09.351Z,17.80
2022-08-23T21:26:36.862Z,17.70
2022-08-23T21:29:05.108Z,17.60
2022-08-23T21:31:32.030Z,17.60
2022-08-23T21:34:00.562Z,17.50
2022-08-23T21:36:28.546Z,17.40
2022-08-23T21:38:55.532Z,17.30
2022-08-23T21:41:36.836Z,17.30
2022-08-23T21:44:07.379Z,17.30
2022-08-23T21:46:34.552Z,17.20
2022-08-23T21:49:02.009Z,17.20
2022-08-23T21:51:29.783Z,17.10
2022-08-23T21:53:56.961Z,17.10
2022-08-23T21:56:26.062Z,17.00
2022-08-23T21:58:54.636Z,16.90
2022-08-23T22:01:21.499Z,16.80
2022-08-23T22:03:48.353Z,16.80
2022-08-23T22:06:17.537Z,16.80
2022-08-23T22:08:45.358Z,16.70
2022-08-23T22:11:13.928Z,16.60
2022-08-23T22:13:44.748Z,16.50
2022-08-23T22:16:12.156Z,16.50
2022-08-23T22:18:39.134Z,16.40
2022-08-23T22:21:07.032Z,16.30
2022-08-23T22:23:36.284Z,16.20
2022-08-23T22:26:07.071Z,16.10
2022-08-23T22:28:36.174Z,16.10
2022-08-23T22:31:06.256Z,16.00
2022-08-23T22:33:33.463Z,15.90
2022-08-23T22:36:09.440Z,15.90
2022-08-23T22:38:37.450Z,15.80
2022-08-23T22:41:04.534Z,15.80
2022-08-23T22:43:31.665Z,15.80
2022-08-23T22:46:01.040Z,15.70
2022-08-23T22:48:30.656Z,15.70
2022-08-23T22:51:14.654Z,15.60
2022-08-23T22:53:45.005Z,15.60
2022-08-23T22:56:16.791Z,15.60
2022-08-23T22:58:44.027Z,15.60
2022-08-23T23:01:17.902Z,15.60
2022-08-23T23:03:45.948Z,15.60
2022-08-23T23:06:13.094Z,15.50
2022-08-23T23:08:40.150Z,15.40
2022-08-23T23:11:10.239Z,15.40
2022-08-23T23:13:37.638Z,15.30
2022-08-23T23:16:07.442Z,15.20
2022-08-23T23:18:34.983Z,15.20
2022-08-23T23:21:04.046Z,15.10
2022-08-23T23:23:34.453Z,15.10
2022-08-23T23:26:01.396Z,15.00
2022-08-23T23:28:28.285Z,14.90
2022-08-23T23:30:55.842Z,14.90
2022-08-23T23:33:23.297Z,14.90
2022-08-23T23:35:51.749Z,14.90
2022-08-23T23:38:19.139Z,14.90
2022-08-23T23:40:46.205Z,14.90
2022-08-23T23:43:13.491Z,14.90
2022-08-23T23:45:41.621Z,14.80
2022-08-23T23:48:09.582Z,14.80
2022-08-23T23:50:42.639Z,14.70
2022-08-23T23:53:12.306Z,14.60
2022-08-23T23:55:39.203Z,14.60
2022-08-23T23:58:06.093Z,14.60
